Time;durP1;ratioP1;P1;durP2;ratioP2;P2;SDS_P1;SDS_P2;PMS_P1;PMS_P2;Temp;Humidity;BMP_temperature;BMP_pressure;BME280_temperature;BME280_humidity;BME280_pressure;Samples;Min_cycle;Max_cycle;Signal;HPM_P1;HPM_P2
2021/10/12 00:01:47;;;;;;;10.73;3.93;;;13.00;99.50;;;;;;8271365;28;20630;-79
2021/10/12 00:05:48;;;;;;;8.17;4.10;;;13.00;99.60;;;;;;8273849;28;20227;-78
2021/10/12 00:09:48;;;;;;;7.27;4.23;;;13.00;99.70;;;;;;8272935;28;20182;-79
2021/10/12 00:13:49;;;;;;;9.93;4.37;;;13.00;99.80;;;;;;8286793;28;20235;-78
2021/10/12 00:17:50;;;;;;;7.30;4.80;;;12.90;99.90;;;;;;8283673;28;20192;-80
2021/10/12 00:21:50;;;;;;;14.00;4.93;;;12.90;99.80;;;;;;8278751;28;20179;-80
2021/10/12 00:25:51;;;;;;;10.87;4.33;;;12.90;99.90;;;;;;8279653;28;20193;-80
2021/10/12 00:29:52;;;;;;;11.60;5.03;;;12.90;99.90;;;;;;8284351;28;20181;-80
2021/10/12 00:33:52;;;;;;;9.93;4.10;;;12.90;99.90;;;;;;8281483;28;20205;-80
2021/10/12 00:37:53;;;;;;;13.17;7.60;;;12.90;99.90;;;;;;8282464;28;20195;-80
2021/10/12 00:41:53;;;;;;;23.23;4.23;;;12.90;99.90;;;;;;8285465;28;20203;-80
2021/10/12 00:45:56;;;;;;;10.90;4.80;;;12.90;99.90;;;;;;8282550;28;20562;-80
2021/10/12 00:49:56;;;;;;;15.30;4.57;;;12.90;99.90;;;;;;8285894;28;20178;-80
2021/10/12 00:53:57;;;;;;;17.30;4.60;;;12.90;99.80;;;;;;8281978;28;20469;-80
2021/10/12 00:57:58;;;;;;;18.10;6.20;;;12.90;99.80;;;;;;8283106;28;20205;-77
2021/10/12 01:01:58;;;;;;;9.13;4.90;;;12.90;99.80;;;;;;8328226;23;20228;-78
2021/10/12 01:05:59;;;;;;;6.50;3.40;;;12.90;99.80;;;;;;8380417;28;20185;-78
2021/10/12 01:10:00;;;;;;;24.67;5.93;;;12.90;99.80;;;;;;8379377;28;20648;-78
2021/10/12 01:14:02;;;;;;;9.10;4.33;;;13.00;99.70;;;;;;8381998;28;20205;-77
2021/10/12 01:18:09;;;;;;;7.27;4.50;;;13.00;99.70;;;;;;8383289;28;20182;-79
2021/10/12 01:22:09;;;;;;;12.70;3.80;;;13.00;99.70;;;;;;8383532;28;20401;-78
2021/10/12 01:26:10;;;;;;;16.27;6.00;;;13.00;99.70;;;;;;8393944;28;20448;-78
2021/10/12 01:30:12;;;;;;;15.30;5.87;;;13.00;99.60;;;;;;8380625;28;20200;-78
2021/10/12 01:34:21;;;;;;;10.83;4.30;;;13.00;99.70;;;;;;8376783;28;20694;-78
2021/10/12 01:38:21;;;;;;;12.10;4.10;;;13.00;99.70;;;;;;8376542;28;20535;-78
2021/10/12 01:42:23;;;;;;;16.73;6.17;;;13.00;99.80;;;;;;8410878;28;20934;-79
2021/10/12 01:46:23;;;;;;;24.10;5.50;;;13.00;99.80;;;;;;8378020;28;20625;-78
2021/10/12 01:50:24;;;;;;;17.90;6.30;;;13.00;99.90;;;;;;8380499;28;20441;-78
2021/10/12 01:54:26;;;;;;;11.80;6.23;;;13.00;99.90;;;;;;8377742;28;20241;-80
2021/10/12 01:58:26;;;;;;;22.60;7.67;;;13.00;99.90;;;;;;8374072;28;20209;-80
2021/10/12 02:02:27;;;;;;;13.80;6.87;;;12.90;99.90;;;;;;8372158;28;20467;-80
2021/10/12 02:06:28;;;;;;;13.17;7.40;;;12.90;99.90;;;;;;8372176;28;20181;-80
2021/10/12 02:10:28;;;;;;;18.07;7.83;;;12.80;99.90;;;;;;8405925;28;20177;-80
2021/10/12 02:14:29;;;;;;;13.93;9.57;;;12.80;99.90;;;;;;8371519;28;20205;-80
2021/10/12 02:18:30;;;;;;;22.37;11.20;;;12.80;99.90;;;;;;8373049;28;20607;-79
2021/10/12 02:22:30;;;;;;;24.70;9.93;;;12.80;99.90;;;;;;8371344;28;20201;-79
2021/10/12 02:26:31;;;;;;;23.70;10.10;;;12.80;99.90;;;;;;8370000;28;20189;-79
2021/10/12 02:30:32;;;;;;;26.93;11.13;;;12.80;99.90;;;;;;8372383;28;20182;-79
2021/10/12 02:34:32;;;;;;;26.07;12.20;;;12.80;99.90;;;;;;8372281;28;20213;-79
2021/10/12 02:38:33;;;;;;;24.53;12.23;;;12.80;99.90;;;;;;8371622;28;20183;-80
2021/10/12 02:42:34;;;;;;;22.93;13.00;;;12.80;99.90;;;;;;8371260;28;20226;-78
2021/10/12 02:46:34;;;;;;;26.30;15.67;;;12.80;99.90;;;;;;8371584;28;20180;-79
2021/10/12 02:50:35;;;;;;;38.00;17.50;;;12.80;99.90;;;;;;8370463;28;20232;-80
2021/10/12 02:54:36;;;;;;;26.63;17.57;;;12.80;99.90;;;;;;8369878;28;20202;-80
2021/10/12 02:58:37;;;;;;;38.67;17.53;;;12.80;99.90;;;;;;8370485;28;20181;-80
2021/10/12 03:02:38;;;;;;;38.87;19.07;;;12.70;99.90;;;;;;8370359;28;20233;-80
2021/10/12 03:06:38;;;;;;;25.93;16.53;;;12.70;99.90;;;;;;8370366;28;20795;-80
2021/10/12 03:10:39;;;;;;;32.80;15.97;;;12.70;99.90;;;;;;8373003;28;20203;-79
2021/10/12 03:14:43;;;;;;;51.37;17.27;;;12.60;99.90;;;;;;8368868;28;20681;-80
2021/10/12 03:18:44;;;;;;;35.33;18.80;;;12.60;99.90;;;;;;8371062;28;20431;-79
2021/10/12 03:22:45;;;;;;;32.70;16.87;;;12.70;99.90;;;;;;8372002;28;20432;-78
2021/10/12 03:26:45;;;;;;;35.90;20.30;;;12.60;99.90;;;;;;8372395;28;20186;-79
2021/10/12 03:30:46;;;;;;;31.30;18.77;;;12.60;99.90;;;;;;8370590;28;20176;-79
2021/10/12 03:34:46;;;;;;;33.67;19.80;;;12.60;99.90;;;;;;8372720;28;20217;-80
2021/10/12 03:38:47;;;;;;;33.07;20.20;;;12.60;99.90;;;;;;8373632;28;20180;-80
2021/10/12 03:42:48;;;;;;;45.43;19.80;;;12.60;99.90;;;;;;8376176;28;20195;-80
2021/10/12 03:46:49;;;;;;;34.87;20.30;;;12.70;99.90;;;;;;8387019;28;20188;-79
2021/10/12 03:50:50;;;;;;;36.93;19.30;;;12.70;99.90;;;;;;8375622;28;20503;-79
2021/10/12 03:54:51;;;;;;;34.90;19.03;;;12.70;99.90;;;;;;8376274;28;20463;-79
2021/10/12 03:58:53;;;;;;;28.37;16.90;;;12.70;99.90;;;;;;8378356;28;20697;-79
2021/10/12 04:02:54;;;;;;;25.50;14.67;;;12.70;99.90;;;;;;8376908;28;20570;-80
2021/10/12 04:06:54;;;;;;;24.70;13.43;;;12.60;99.90;;;;;;8376635;28;20508;-80
2021/10/12 04:10:55;;;;;;;31.60;12.67;;;12.60;99.90;;;;;;8377775;28;20271;-81
2021/10/12 04:14:55;;;;;;;24.67;13.37;;;12.50;99.90;;;;;;8377476;28;20211;-81
2021/10/12 04:18:56;;;;;;;22.50;12.20;;;12.50;99.90;;;;;;8375893;28;20199;-80
2021/10/12 04:22:57;;;;;;;22.50;13.00;;;12.50;99.90;;;;;;8376925;28;20173;-79
2021/10/12 04:26:58;;;;;;;23.67;12.67;;;12.50;99.90;;;;;;8377002;28;20182;-79
2021/10/12 04:30:58;;;;;;;20.77;12.53;;;12.40;99.90;;;;;;8378174;28;20462;-78
2021/10/12 04:34:59;;;;;;;27.27;12.63;;;12.50;99.90;;;;;;8376507;28;20195;-78
2021/10/12 04:39:00;;;;;;;24.27;14.13;;;12.40;99.90;;;;;;8373629;28;20643;-78
2021/10/12 04:43:02;;;;;;;21.93;11.80;;;12.50;99.90;;;;;;8372779;28;20181;-79
2021/10/12 04:47:03;;;;;;;23.03;15.10;;;12.50;99.90;;;;;;8373149;28;20674;-78
2021/10/12 04:51:03;;;;;;;32.03;17.00;;;12.40;99.90;;;;;;8374852;28;20410;-78
2021/10/12 04:55:04;;;;;;;35.43;18.23;;;12.40;99.90;;;;;;8372480;28;20209;-79
2021/10/12 04:59:05;;;;;;;24.17;16.27;;;12.40;99.90;;;;;;8377668;28;20626;-78
2021/10/12 05:03:05;;;;;;;26.33;16.50;;;12.40;99.90;;;;;;8372434;28;20230;-78
2021/10/12 05:07:06;;;;;;;33.17;15.70;;;12.40;99.90;;;;;;8374451;28;20616;-78
2021/10/12 05:11:07;;;;;;;27.93;14.83;;;12.40;99.90;;;;;;8371266;28;20663;-81
2021/10/12 05:15:08;;;;;;;22.80;13.53;;;12.40;99.90;;;;;;8374202;28;20236;-79
2021/10/12 05:19:09;;;;;;;25.80;13.30;;;12.40;99.90;;;;;;8373232;28;20182;-78
2021/10/12 05:23:09;;;;;;;18.30;12.67;;;12.40;99.90;;;;;;8372651;28;20427;-80
2021/10/12 05:27:11;;;;;;;22.33;13.60;;;12.40;99.90;;;;;;8375132;28;20188;-80
2021/10/12 05:31:12;;;;;;;21.07;11.33;;;12.50;99.90;;;;;;8374220;28;20176;-80
2021/10/12 05:35:13;;;;;;;22.57;12.80;;;12.50;99.90;;;;;;8371749;28;20471;-78
2021/10/12 05:39:13;;;;;;;15.40;11.13;;;12.50;99.90;;;;;;8370609;28;20446;-78
2021/10/12 05:43:17;;;;;;;24.17;11.73;;;12.50;99.90;;;;;;8375602;28;20178;-77
2021/10/12 05:47:18;;;;;;;23.60;11.70;;;12.50;99.90;;;;;;8375425;28;20671;-78
2021/10/12 05:51:22;;;;;;;20.97;11.37;;;12.50;99.90;;;;;;8374629;28;20415;-78
2021/10/12 05:56:12;;;;;;;21.73;9.40;;;12.50;99.90;;;;;;8384991;28;20211;-79
2021/10/12 05:59:43;;;;;;;17.47;9.40;;;12.50;99.90;;;;;;8380285;28;20428;-78
2021/10/12 06:03:44;;;;;;;20.10;8.97;;;12.50;99.90;;;;;;8396649;28;20467;-79
2021/10/12 06:07:45;;;;;;;17.40;7.30;;;12.50;99.90;;;;;;8371058;28;20176;-78
2021/10/12 06:11:46;;;;;;;11.83;7.40;;;12.50;99.90;;;;;;8368105;28;20427;-78
2021/10/12 06:15:46;;;;;;;22.00;8.40;;;12.50;99.90;;;;;;8367839;28;20230;-77
2021/10/12 06:19:47;;;;;;;13.40;7.17;;;12.50;99.90;;;;;;8371542;28;20179;-80
2021/10/12 06:23:47;;;;;;;10.60;7.43;;;12.50;99.90;;;;;;8371015;28;20189;-78
2021/10/12 06:27:48;;;;;;;12.10;7.00;;;12.60;99.90;;;;;;8371932;28;20216;-78
2021/10/12 06:31:49;;;;;;;21.47;7.77;;;12.60;99.90;;;;;;8371290;28;20185;-79
2021/10/12 06:35:49;;;;;;;17.03;7.57;;;12.60;99.90;;;;;;8371858;28;20232;-78
2021/10/12 06:39:50;;;;;;;12.70;9.10;;;12.60;99.90;;;;;;8372622;28;20196;-78
2021/10/12 06:43:51;;;;;;;10.10;6.27;;;12.70;99.90;;;;;;8373058;28;20246;-78
2021/10/12 06:47:51;;;;;;;24.33;10.83;;;12.70;99.90;;;;;;8372891;28;20178;-77
2021/10/12 06:51:52;;;;;;;10.03;6.90;;;12.80;99.90;;;;;;8371264;28;20177;-80
2021/10/12 06:55:53;;;;;;;13.10;6.80;;;12.80;99.90;;;;;;8370559;28;20521;-78
2021/10/12 06:59:54;;;;;;;16.83;7.67;;;12.90;99.90;;;;;;8369631;28;20223;-77
2021/10/12 07:03:54;;;;;;;14.47;7.20;;;12.90;99.90;;;;;;8377803;28;20470;-78
2021/10/12 07:07:55;;;;;;;19.27;7.87;;;12.90;99.90;;;;;;8368814;28;20319;-77
2021/10/12 07:11:56;;;;;;;17.00;6.90;;;12.90;99.90;;;;;;8373187;28;20180;-77
2021/10/12 07:15:57;;;;;;;14.50;8.87;;;13.00;99.90;;;;;;8375789;28;20304;-77
2021/10/12 07:19:57;;;;;;;22.43;10.43;;;13.00;99.90;;;;;;8367783;28;20252;-77
2021/10/12 07:23:58;;;;;;;21.63;9.80;;;13.00;99.90;;;;;;8370671;28;20431;-78
2021/10/12 07:27:59;;;;;;;18.13;9.77;;;13.00;99.90;;;;;;8369966;28;20234;-78
2021/10/12 07:31:59;;;;;;;18.13;10.20;;;13.00;99.90;;;;;;8370780;28;20431;-78
2021/10/12 07:36:00;;;;;;;19.43;10.70;;;13.00;99.90;;;;;;8377908;28;20221;-78
2021/10/12 07:40:03;;;;;;;17.37;9.40;;;13.00;99.90;;;;;;8376648;28;20169;-77
2021/10/12 07:44:04;;;;;;;19.80;9.53;;;13.00;99.90;;;;;;8366742;28;20544;-76
2021/10/12 07:48:05;;;;;;;13.80;9.07;;;13.00;99.90;;;;;;8369002;28;20420;-77
2021/10/12 07:52:07;;;;;;;18.93;8.90;;;13.00;99.90;;;;;;8365815;28;20428;-78
2021/10/12 07:56:10;;;;;;;20.73;9.30;;;13.10;99.90;;;;;;8370304;28;20221;-79
2021/10/12 08:00:12;;;;;;;17.20;9.07;;;13.10;99.90;;;;;;8370981;28;20420;-78
2021/10/12 08:04:12;;;;;;;10.30;8.40;;;13.10;99.90;;;;;;8374541;28;20628;-78
2021/10/12 08:08:13;;;;;;;20.37;8.80;;;13.10;99.90;;;;;;8369168;28;20467;-79
2021/10/12 08:12:14;;;;;;;18.37;8.10;;;13.00;99.90;;;;;;8369392;28;20211;-78
2021/10/12 08:16:19;;;;;;;12.50;6.90;;;13.00;99.90;;;;;;8370795;28;20559;-79
2021/10/12 08:20:19;;;;;;;19.57;7.60;;;13.00;99.90;;;;;;8373789;28;20165;-79
2021/10/12 08:24:20;;;;;;;13.93;7.73;;;12.90;99.90;;;;;;8379629;28;20428;-78
2021/10/12 08:28:21;;;;;;;12.23;7.83;;;13.00;99.90;;;;;;8370842;28;20212;-78
2021/10/12 08:32:22;;;;;;;11.80;7.17;;;13.00;99.90;;;;;;8377901;28;20477;-78
2021/10/12 08:36:22;;;;;;;14.17;6.90;;;13.10;99.90;;;;;;8379966;28;20245;-78
2021/10/12 08:40:23;;;;;;;13.30;6.67;;;13.10;99.90;;;;;;8378320;28;20185;-76
2021/10/12 08:44:23;;;;;;;7.07;6.47;;;13.20;99.90;;;;;;8376385;28;20183;-78
2021/10/12 08:48:26;;;;;;;13.43;7.03;;;13.30;99.90;;;;;;8369693;28;20268;-78
2021/10/12 08:52:26;;;;;;;10.07;6.87;;;13.30;99.90;;;;;;8371907;28;20511;-80
2021/10/12 08:56:27;;;;;;;11.70;7.33;;;13.30;99.90;;;;;;8375130;28;20477;-78
2021/10/12 09:00:29;;;;;;;13.27;7.53;;;13.40;99.90;;;;;;8375709;28;20437;-77
2021/10/12 09:04:41;;;;;;;10.63;6.70;;;13.50;99.90;;;;;;8375668;28;20215;-78
2021/10/12 09:08:42;;;;;;;12.97;8.50;;;13.50;99.90;;;;;;8392412;28;20450;-78
2021/10/12 09:12:45;;;;;;;11.20;7.87;;;13.50;99.90;;;;;;8379059;28;20420;-78
2021/10/12 09:16:45;;;;;;;13.10;7.70;;;13.40;99.90;;;;;;8375925;28;20483;-77
2021/10/12 09:20:46;;;;;;;18.93;7.67;;;13.40;99.90;;;;;;8374801;28;20426;-79
2021/10/12 09:24:48;;;;;;;14.53;8.23;;;13.40;99.90;;;;;;8374221;28;20268;-78
2021/10/12 09:28:56;;;;;;;10.90;7.50;;;13.40;99.90;;;;;;8384871;28;20179;-79
2021/10/12 09:33:04;;;;;;;13.77;7.50;;;13.30;99.90;;;;;;8368212;28;20429;-77
2021/10/12 09:37:09;;;;;;;11.10;7.13;;;13.40;99.90;;;;;;8385845;28;20932;-77
2021/10/12 09:41:10;;;;;;;11.63;8.40;;;13.40;99.90;;;;;;8382288;28;20485;-77
2021/10/12 09:45:11;;;;;;;9.80;8.13;;;13.40;99.90;;;;;;8382184;28;20436;-76
2021/10/12 09:49:17;;;;;;;9.70;8.27;;;13.40;99.90;;;;;;8370712;28;20175;-77
2021/10/12 09:53:31;;;;;;;17.20;9.97;;;13.50;99.90;;;;;;8372386;28;20163;-76
2021/10/12 09:57:34;;;;;;;16.87;9.80;;;13.50;99.90;;;;;;8373969;28;20448;-78
2021/10/12 10:01:36;;;;;;;13.53;9.60;;;13.50;99.90;;;;;;8375471;28;20461;-78
2021/10/12 10:05:36;;;;;;;15.93;10.00;;;13.60;99.90;;;;;;8373651;28;20517;-77
2021/10/12 10:09:42;;;;;;;14.60;9.73;;;13.50;99.90;;;;;;8377748;28;20420;-78
2021/10/12 10:13:44;;;;;;;15.77;10.37;;;13.50;99.90;;;;;;8376743;28;20213;-77
2021/10/12 10:17:47;;;;;;;15.00;10.33;;;13.50;99.90;;;;;;8376527;28;20469;-77
2021/10/12 10:21:48;;;;;;;15.40;10.60;;;13.40;99.90;;;;;;8378988;28;20429;-78
2021/10/12 10:25:49;;;;;;;19.23;12.60;;;13.40;99.90;;;;;;8378556;28;20546;-78
2021/10/12 10:29:49;;;;;;;17.07;11.80;;;13.40;99.90;;;;;;8381323;28;20410;-78
2021/10/12 10:33:52;;;;;;;22.63;12.90;;;13.30;99.90;;;;;;8386896;28;20214;-79
2021/10/12 10:37:53;;;;;;;18.83;12.77;;;13.30;99.90;;;;;;8393441;28;20178;-79
2021/10/12 10:41:54;;;;;;;19.40;12.97;;;13.40;99.90;;;;;;8397624;28;20424;-78
2021/10/12 10:45:54;;;;;;;19.27;13.33;;;13.50;99.90;;;;;;8391433;28;20175;-78
2021/10/12 10:50:13;;;;;;;21.50;15.50;;;13.50;99.90;;;;;;8384858;28;20187;-77
2021/10/12 10:54:36;;;;;;;21.50;14.70;;;13.60;99.90;;;;;;8381074;28;20229;-78
2021/10/12 10:58:37;;;;;;;26.70;17.57;;;13.60;99.90;;;;;;8383444;28;20829;-77
2021/10/12 11:02:37;;;;;;;27.33;17.03;;;13.60;99.90;;;;;;8383286;28;20473;-79
2021/10/12 11:06:38;;;;;;;29.50;17.87;;;13.60;99.90;;;;;;8380858;28;20185;-78
2021/10/12 11:10:40;;;;;;;29.57;14.00;;;13.50;99.90;;;;;;8370945;28;20187;-77
2021/10/12 11:14:41;;;;;;;20.43;14.17;;;13.50;99.90;;;;;;8346530;28;20198;-79
2021/10/12 11:18:46;;;;;;;17.80;11.97;;;13.60;99.90;;;;;;8343076;28;20625;-77
2021/10/12 11:22:50;;;;;;;15.73;11.33;;;13.60;99.90;;;;;;8345149;28;20185;-78
2021/10/12 11:27:25;;;;;;;15.80;12.80;;;13.50;99.90;;;;;;8312029;28;20456;-78
2021/10/12 11:31:28;;;;;;;23.73;11.37;;;13.50;99.90;;;;;;8334665;28;20445;-78
2021/10/12 11:35:33;;;;;;;14.37;10.40;;;13.60;99.90;;;;;;8342344;28;20487;-78
2021/10/12 11:39:34;;;;;;;19.53;10.73;;;13.70;99.90;;;;;;8360139;28;20539;-78
2021/10/12 11:43:37;;;;;;;14.80;10.63;;;13.70;99.90;;;;;;8341071;28;20921;-80
2021/10/12 11:47:39;;;;;;;14.23;10.07;;;13.70;99.90;;;;;;8340015;28;20621;-81
2021/10/12 11:51:43;;;;;;;22.30;10.50;;;13.70;99.90;;;;;;8340305;28;20555;-80
2021/10/12 11:55:43;;;;;;;18.90;10.80;;;13.60;99.90;;;;;;8372713;28;20464;-81
2021/10/12 11:59:47;;;;;;;20.50;9.30;;;13.60;99.90;;;;;;8370620;28;20436;-81
2021/10/12 12:03:48;;;;;;;15.80;10.00;;;13.60;99.90;;;;;;8375337;28;20234;-80
2021/10/12 12:07:49;;;;;;;15.90;9.30;;;13.60;99.90;;;;;;8379016;28;20452;-80
2021/10/12 12:11:52;;;;;;;12.13;8.47;;;13.60;99.90;;;;;;8379527;28;20678;-81
2021/10/12 12:15:53;;;;;;;13.00;10.00;;;13.70;99.90;;;;;;8378158;28;20220;-82
2021/10/12 12:19:57;;;;;;;9.47;8.57;;;13.70;99.90;;;;;;8380258;28;20421;-81
2021/10/12 12:24:02;;;;;;;15.57;9.70;;;13.70;99.90;;;;;;8368900;28;20190;-79
2021/10/12 12:28:03;;;;;;;17.57;10.53;;;13.70;99.90;;;;;;8345431;28;20426;-79
2021/10/12 12:32:12;;;;;;;12.57;8.90;;;13.80;99.90;;;;;;8343551;28;20949;-80
2021/10/12 12:36:13;;;;;;;18.53;9.47;;;13.90;99.90;;;;;;8367399;28;20212;-80
2021/10/12 12:40:28;;;;;;;11.07;9.00;;;14.00;99.90;;;;;;8360464;28;20464;-81
2021/10/12 12:44:29;;;;;;;10.70;8.13;;;14.10;99.90;;;;;;8345156;28;20186;-81
2021/10/12 12:48:29;;;;;;;7.97;7.27;;;14.20;99.90;;;;;;8344909;28;20437;-81
2021/10/12 12:52:32;;;;;;;11.23;6.80;;;14.30;99.90;;;;;;8360938;28;20176;-81
2021/10/12 12:56:37;;;;;;;9.30;5.93;;;14.40;99.90;;;;;;8347126;28;20211;-81
2021/10/12 13:00:56;;;;;;;6.80;5.20;;;14.50;99.90;;;;;;8370115;28;20449;-81
2021/10/12 13:04:57;;;;;;;5.60;5.10;;;14.50;99.90;;;;;;8344287;28;20469;-79
2021/10/12 13:09:01;;;;;;;5.80;5.33;;;14.40;99.90;;;;;;8344868;28;20504;-80
2021/10/12 13:13:01;;;;;;;4.97;4.47;;;14.50;99.90;;;;;;8344256;28;20176;-80
2021/10/12 13:17:02;;;;;;;6.30;5.30;;;14.60;99.90;;;;;;8357471;28;20470;-79
2021/10/12 13:21:03;;;;;;;4.07;3.63;;;14.70;99.90;;;;;;8344061;28;20192;-79
2021/10/12 13:25:05;;;;;;;4.73;4.13;;;14.60;99.90;;;;;;8343460;28;20181;-82
2021/10/12 13:29:06;;;;;;;6.13;4.80;;;14.60;99.90;;;;;;8359014;28;20180;-81
2021/10/12 13:33:08;;;;;;;5.57;4.70;;;14.70;99.90;;;;;;8343111;28;20766;-80
2021/10/12 13:37:08;;;;;;;4.33;4.03;;;14.70;99.90;;;;;;8358916;28;20212;-79
2021/10/12 13:41:09;;;;;;;5.43;4.47;;;14.70;99.90;;;;;;8343398;28;20423;-80
2021/10/12 13:45:13;;;;;;;5.27;4.17;;;14.80;99.90;;;;;;8339542;28;20190;-80
2021/10/12 13:49:14;;;;;;;6.73;4.20;;;14.80;99.90;;;;;;8342462;28;20180;-81
2021/10/12 13:53:15;;;;;;;4.83;4.30;;;14.90;99.90;;;;;;8356907;28;20469;-79
2021/10/12 13:57:15;;;;;;;4.50;4.20;;;15.00;99.90;;;;;;8341821;28;20218;-79
2021/10/12 14:01:16;;;;;;;3.73;3.50;;;15.20;99.90;;;;;;8358705;28;20227;-79
2021/10/12 14:05:16;;;;;;;4.50;4.20;;;15.30;99.90;;;;;;8358030;28;20326;-79
2021/10/12 14:09:17;;;;;;;12.43;6.00;;;15.40;99.90;;;;;;8358769;28;20244;-78
2021/10/12 14:13:18;;;;;;;6.60;4.07;;;15.40;99.90;;;;;;8343489;28;20514;-80
2021/10/12 14:17:21;;;;;;;6.20;4.53;;;15.40;99.90;;;;;;8342944;28;20207;-78
2021/10/12 14:21:22;;;;;;;5.87;5.27;;;15.30;99.90;;;;;;8356720;28;20666;-77
2021/10/12 14:25:23;;;;;;;5.33;4.30;;;15.20;99.90;;;;;;8342304;28;20430;-79
2021/10/12 14:29:25;;;;;;;4.60;4.20;;;15.10;99.90;;;;;;8343549;28;20179;-80
2021/10/12 14:33:26;;;;;;;7.37;5.77;;;15.00;99.90;;;;;;8345130;28;20427;-79
2021/10/12 14:37:32;;;;;;;6.10;5.50;;;14.90;99.90;;;;;;8339742;28;20493;-80
2021/10/12 14:41:34;;;;;;;7.27;6.47;;;14.90;99.90;;;;;;8338866;28;20175;-80
2021/10/12 14:45:35;;;;;;;6.33;5.40;;;14.90;99.90;;;;;;8339569;28;20906;-81
2021/10/12 14:49:36;;;;;;;8.73;6.33;;;14.90;99.90;;;;;;8339873;28;20429;-79
2021/10/12 14:53:36;;;;;;;8.00;5.10;;;14.80;99.90;;;;;;8337886;28;20423;-81
2021/10/12 14:57:37;;;;;;;5.47;4.97;;;14.80;99.90;;;;;;8339404;28;20186;-81
2021/10/12 15:01:39;;;;;;;5.90;5.27;;;14.70;99.90;;;;;;8340560;28;20236;-82
2021/10/12 15:05:39;;;;;;;10.60;6.23;;;14.60;99.90;;;;;;8344103;28;20438;-80
2021/10/12 15:09:40;;;;;;;7.27;6.20;;;14.60;99.90;;;;;;8348643;28;20178;-80
2021/10/12 15:13:41;;;;;;;10.10;8.10;;;14.50;99.90;;;;;;8339228;28;20182;-81
2021/10/12 15:17:42;;;;;;;8.40;7.57;;;14.40;99.90;;;;;;8349987;28;20183;-81
2021/10/12 15:21:44;;;;;;;9.40;8.47;;;14.30;99.90;;;;;;8342120;28;20922;-82
2021/10/12 15:25:45;;;;;;;15.97;10.40;;;14.30;99.90;;;;;;8340048;28;20445;-83
2021/10/12 15:29:46;;;;;;;11.00;8.50;;;14.30;99.90;;;;;;8342209;28;20537;-80
2021/10/12 15:33:46;;;;;;;14.00;11.10;;;14.20;99.90;;;;;;8342647;28;20176;-80
2021/10/12 15:37:47;;;;;;;9.43;8.43;;;14.30;99.90;;;;;;8341670;28;20287;-81
2021/10/12 15:41:50;;;;;;;13.40;7.57;;;14.30;99.90;;;;;;8351040;28;20167;-80
2021/10/12 15:45:51;;;;;;;8.73;7.83;;;14.40;99.90;;;;;;8345788;28;20850;-81
2021/10/12 15:49:51;;;;;;;12.47;9.77;;;14.40;99.90;;;;;;8353445;28;20437;-81
2021/10/12 15:53:52;;;;;;;9.57;8.67;;;14.30;99.90;;;;;;8371339;28;20272;-80
2021/10/12 15:57:53;;;;;;;10.23;8.27;;;14.30;99.90;;;;;;8377309;28;20194;-80
2021/10/12 16:01:54;;;;;;;10.73;8.53;;;14.30;99.90;;;;;;8373417;28;20225;-80
2021/10/12 16:05:54;;;;;;;9.77;8.77;;;14.20;99.90;;;;;;8375346;28;20417;-81
2021/10/12 16:09:55;;;;;;;14.33;9.20;;;14.10;99.90;;;;;;8376498;28;20673;-80
2021/10/12 16:13:57;;;;;;;12.67;8.40;;;14.00;99.90;;;;;;8369541;28;20289;-81
2021/10/12 16:22:17;;;;;;;14.00;10.73;;;13.90;99.90;;;;;;8378008;28;20528;-81
2021/10/12 16:26:18;;;;;;;12.80;9.80;;;13.80;99.90;;;;;;8376137;28;20479;-81
2021/10/12 16:30:21;;;;;;;12.93;10.20;;;13.70;99.90;;;;;;8377207;28;20420;-80
2021/10/12 16:34:25;;;;;;;14.73;10.57;;;13.60;99.90;;;;;;8350303;28;20220;-82
2021/10/12 16:38:26;;;;;;;20.83;12.60;;;13.50;99.90;;;;;;8344665;28;20452;-80
2021/10/12 16:42:26;;;;;;;13.23;11.53;;;13.40;99.90;;;;;;8364681;28;20431;-82
2021/10/12 16:46:27;;;;;;;18.57;13.73;;;13.40;99.90;;;;;;8365082;28;20193;-82
2021/10/12 16:50:28;;;;;;;22.00;13.77;;;13.40;99.90;;;;;;8369453;28;20188;-79
2021/10/12 16:54:28;;;;;;;20.80;14.23;;;13.40;99.90;;;;;;8377276;28;20229;-81
2021/10/12 16:58:29;;;;;;;15.33;10.27;;;13.40;99.90;;;;;;8376843;28;20174;-80
2021/10/12 17:02:30;;;;;;;14.10;9.77;;;13.40;99.90;;;;;;8346894;28;20230;-80
2021/10/12 17:06:31;;;;;;;16.30;11.80;;;13.40;99.90;;;;;;8367496;28;20525;-81
2021/10/12 17:10:31;;;;;;;16.17;10.70;;;13.40;99.90;;;;;;8375338;28;20189;-80
2021/10/12 17:14:32;;;;;;;11.30;8.43;;;13.40;99.90;;;;;;8374471;28;20207;-81
2021/10/12 17:18:34;;;;;;;7.77;6.97;;;13.30;99.90;;;;;;8376274;28;20174;-80
2021/10/12 17:22:34;;;;;;;10.80;6.60;;;13.20;99.90;;;;;;8376293;28;20427;-80
2021/10/12 17:26:35;;;;;;;11.57;7.93;;;13.10;99.90;;;;;;8375780;28;20781;-81
2021/10/12 17:30:36;;;;;;;10.73;5.60;;;13.00;99.90;;;;;;8376467;28;20173;-80
2021/10/12 17:34:36;;;;;;;10.60;7.63;;;12.90;99.90;;;;;;8396438;28;20203;-81
2021/10/12 17:38:37;;;;;;;10.53;6.93;;;12.90;99.90;;;;;;8386975;28;20231;-80
2021/10/12 17:42:39;;;;;;;7.17;5.40;;;12.90;99.90;;;;;;8373080;28;20187;-80
2021/10/12 17:46:40;;;;;;;7.60;5.10;;;12.90;99.90;;;;;;8374356;28;20179;-80
2021/10/12 17:50:48;;;;;;;4.00;3.70;;;12.80;99.90;;;;;;8374564;28;20742;-80
2021/10/12 17:55:06;;;;;;;3.43;3.20;;;12.70;99.90;;;;;;8391125;28;20226;-80
2021/10/12 17:59:08;;;;;;;5.20;4.47;;;12.60;99.90;;;;;;8391630;28;20432;-81
2021/10/12 18:03:27;;;;;;;4.40;3.80;;;12.40;99.90;;;;;;8372530;28;20568;-79
2021/10/12 18:07:27;;;;;;;7.23;4.60;;;12.20;99.90;;;;;;8389650;28;20435;-81
2021/10/12 18:11:30;;;;;;;8.17;6.60;;;12.10;99.90;;;;;;8389502;28;20517;-80
2021/10/12 18:15:30;;;;;;;9.60;6.10;;;12.00;99.90;;;;;;8372941;28;20235;-80
2021/10/12 18:19:31;;;;;;;8.53;6.50;;;11.80;99.90;;;;;;8346470;28;20441;-80
2021/10/12 18:23:31;;;;;;;4.87;3.93;;;11.80;99.90;;;;;;8340790;28;20184;-78
2021/10/12 18:27:34;;;;;;;7.37;3.67;;;11.70;99.90;;;;;;8356759;28;20180;-81
2021/10/12 18:31:35;;;;;;;5.87;4.33;;;11.60;99.90;;;;;;8340447;28;20164;-80
2021/10/12 18:35:36;;;;;;;9.73;4.60;;;11.50;99.90;;;;;;8340191;28;20502;-79
2021/10/12 18:39:38;;;;;;;6.80;4.50;;;11.40;99.90;;;;;;8345769;28;20422;-79
2021/10/12 18:43:38;;;;;;;3.73;3.43;;;11.40;99.90;;;;;;8344646;28;20419;-81
2021/10/12 18:47:40;;;;;;;7.33;4.23;;;11.30;99.90;;;;;;8338761;28;20442;-81
2021/10/12 18:51:41;;;;;;;10.97;4.93;;;11.20;99.90;;;;;;8370644;28;20179;-79
2021/10/12 18:55:45;;;;;;;9.27;4.53;;;11.20;99.90;;;;;;8372711;28;20578;-80
2021/10/12 18:59:45;;;;;;;13.03;5.40;;;11.20;99.90;;;;;;8370023;28;20450;-80
2021/10/12 19:03:46;;;;;;;9.43;5.97;;;11.20;99.90;;;;;;8376780;28;20476;-78
2021/10/12 19:07:47;;;;;;;8.07;7.30;;;11.20;99.90;;;;;;8365868;28;20217;-79
2021/10/12 19:11:48;;;;;;;11.60;6.90;;;11.20;99.90;;;;;;8355377;28;20216;-78
2021/10/12 19:15:48;;;;;;;11.37;8.17;;;11.20;99.90;;;;;;8373087;28;20465;-80
2021/10/12 19:19:49;;;;;;;8.40;6.47;;;11.20;99.90;;;;;;8374752;28;20173;-81
2021/10/12 19:23:50;;;;;;;16.53;6.77;;;11.20;99.90;;;;;;8366183;28;20183;-78
2021/10/12 19:27:51;;;;;;;13.17;5.33;;;11.10;99.90;;;;;;8373761;28;20447;-80
2021/10/12 19:31:51;;;;;;;8.50;6.27;;;11.10;99.90;;;;;;8392782;28;20264;-79
2021/10/12 19:35:54;;;;;;;13.30;5.70;;;11.00;99.90;;;;;;8369288;28;20546;-79
2021/10/12 19:39:55;;;;;;;9.30;6.30;;;10.90;99.90;;;;;;8372508;28;20496;-79
2021/10/12 19:43:55;;;;;;;13.10;6.50;;;10.80;99.90;;;;;;8387186;28;20428;-83
2021/10/12 19:47:56;;;;;;;11.27;6.57;;;10.80;99.90;;;;;;8374597;28;20583;-79
2021/10/12 19:52:05;;;;;;;11.73;6.40;;;10.80;99.90;;;;;;8365975;28;20187;-79
2021/10/12 19:56:06;;;;;;;11.47;5.50;;;10.70;99.90;;;;;;8369289;28;20514;-79
2021/10/12 20:00:08;;;;;;;9.33;5.30;;;10.70;99.90;;;;;;8349695;28;20419;-79
2021/10/12 20:04:08;;;;;;;11.40;5.07;;;10.60;99.90;;;;;;8335972;28;20243;-79
2021/10/12 20:08:09;;;;;;;6.23;5.30;;;10.60;99.90;;;;;;8332157;28;20448;-78
2021/10/12 20:12:11;;;;;;;9.50;5.40;;;10.50;99.90;;;;;;8346808;28;20325;-78
2021/10/12 20:16:11;;;;;;;8.60;5.10;;;10.50;99.90;;;;;;8355848;28;20473;-78
2021/10/12 20:20:12;;;;;;;9.37;5.83;;;10.40;99.90;;;;;;8367319;28;20456;-80
2021/10/12 20:24:13;;;;;;;13.93;5.67;;;10.30;99.90;;;;;;8367563;28;20182;-80
2021/10/12 20:28:13;;;;;;;7.37;5.30;;;10.20;99.90;;;;;;8387101;28;20217;-80
2021/10/12 20:32:14;;;;;;;11.03;6.57;;;10.10;99.90;;;;;;8374938;28;20252;-80
2021/10/12 20:36:15;;;;;;;12.00;7.07;;;10.10;99.90;;;;;;8382017;28;20260;-79
2021/10/12 20:40:15;;;;;;;8.20;6.07;;;10.00;99.90;;;;;;8407996;28;20205;-77
2021/10/12 20:44:19;;;;;;;12.30;7.17;;;9.90;99.90;;;;;;8408963;28;20182;-79